Time;durP1;ratioP1;P1;durP2;ratioP2;P2;SDS_P1;SDS_P2;PMS_P1;PMS_P2;Temp;Humidity;BMP_temperature;BMP_pressure;BME280_temperature;BME280_humidity;BME280_pressure;Samples;Min_cycle;Max_cycle;Signal;HPM_P1;HPM_P2
2022/06/26 00:01:25;;;;;;;;;;;;;;;;;;4988324;28;19961;-52
2022/06/26 00:03:52;;;;;;;;;;;;;;;;;;4986723;28;19910;-54
2022/06/26 00:06:18;;;;;;;;;;;;;;;;;;4987654;28;19917;-52
2022/06/26 00:08:44;;;;;;;;;;;;;;;;;;4987877;28;19933;-54
2022/06/26 00:11:10;;;;;;;;;;;;;;;;;;4988185;28;19980;-53
2022/06/26 00:13:36;;;;;;;;;;;;;;;;;;4987876;28;20008;-54
2022/06/26 00:16:02;;;;;;;;;;;;;;;;;;4987704;28;19976;-53
2022/06/26 00:18:28;;;;;;;;;;;;;;;;;;4986969;28;19914;-54
2022/06/26 00:20:54;;;;;;;;;;;;;;;;;;4986594;28;20053;-53
2022/06/26 00:23:21;;;;;;;;;;;;;;;;;;4986139;28;19917;-54
2022/06/26 00:25:47;;;;;;;;;;;;;;;;;;4987631;28;19902;-53
2022/06/26 00:28:13;;;;;;;;;;;;;;;;;;4987399;28;19912;-53
2022/06/26 00:30:39;;;;;;;;;;;;;;;;;;4986358;28;19910;-54
2022/06/26 00:33:05;;;;;;;;;;;;;;;;;;4987411;28;20593;-54
2022/06/26 00:35:31;;;;;;;;;;;;;;;;;;4985260;28;19912;-53
2022/06/26 00:37:58;;;;;;;;;;;;;;;;;;4986554;28;19917;-53
2022/06/26 00:40:24;;;;;;;;;;;;;;;;;;4987807;28;19968;-53
2022/06/26 00:42:49;;;;;;;;;;;;;;;;;;4987342;28;19917;-53
2022/06/26 00:45:15;;;;;;;;;;;;;;;;;;4987032;28;19910;-53
2022/06/26 00:47:41;;;;;;;;;;;;;;;;;;4987371;28;19906;-53
2022/06/26 00:50:08;;;;;;;;;;;;;;;;;;4984966;28;19910;-53
2022/06/26 00:52:35;;;;;;;;;;;;;;;;;;4976368;28;19920;-51
2022/06/26 00:55:02;;;;;;;;;;;;;;;;;;4986825;28;19909;-54
2022/06/26 00:57:28;;;;;;;;;;;;;;;;;;4978228;28;19906;-54
2022/06/26 00:59:54;;;;;;;;;;;;;;;;;;4982538;28;19913;-53
2022/06/26 01:02:20;;;;;;;;;;;;;;;;;;4988583;28;20597;-52
2022/06/26 01:04:46;;;;;;;;;;;;;;;;;;4988884;28;19996;-50
2022/06/26 01:07:12;;;;;;;;;;;;;;;;;;4988704;28;19913;-53
2022/06/26 01:09:38;;;;;;;;;;;;;;;;;;4988301;28;19909;-53
2022/06/26 01:12:04;;;;;;;;;;;;;;;;;;4987716;28;19917;-51
2022/06/26 01:14:30;;;;;;;;;;;;;;;;;;4988006;28;19913;-52
2022/06/26 01:16:56;;;;;;;;;;;;;;;;;;4988830;28;19909;-52
2022/06/26 01:19:22;;;;;;;;;;;;;;;;;;4989079;28;19912;-51
2022/06/26 01:21:48;;;;;;;;;;;;;;;;;;4988659;28;19920;-52
2022/06/26 01:24:14;;;;;;;;;;;;;;;;;;4988323;28;20068;-52
2022/06/26 01:26:41;;;;;;;;;;;;;;;;;;4988498;28;19920;-52
2022/06/26 01:29:07;;;;;;;;;;;;;;;;;;4986649;28;19995;-52
2022/06/26 01:31:34;;;;;;;;;;;;;;;;;;4987772;28;19953;-52
2022/06/26 01:34:00;;;;;;;;;;;;;;;;;;4987669;28;20336;-52
2022/06/26 01:36:26;;;;;;;;;;;;;;;;;;4988613;28;20500;-52
2022/06/26 01:38:52;;;;;;;;;;;;;;;;;;4989161;28;19913;-52
2022/06/26 01:41:17;;;;;;;;;;;;;;;;;;4988067;28;19922;-52
2022/06/26 01:43:43;;;;;;;;;;;;;;;;;;4987024;28;19913;-52
2022/06/26 01:46:09;;;;;;;;;;;;;;;;;;4987285;28;19917;-51
2022/06/26 01:48:35;;;;;;;;;;;;;;;;;;4986295;28;19916;-53
2022/06/26 01:51:01;;;;;;;;;;;;;;;;;;4986942;28;19909;-52
2022/06/26 01:53:27;;;;;;;;;;;;;;;;;;4988190;28;20336;-52
2022/06/26 01:55:53;;;;;;;;;;;;;;;;;;4988804;28;19910;-50
2022/06/26 01:58:19;;;;;;;;;;;;;;;;;;4987213;28;19906;-50
2022/06/26 02:00:45;;;;;;;;;;;;;;;;;;4987665;28;19913;-53
2022/06/26 02:03:11;;;;;;;;;;;;;;;;;;4987309;28;19964;-53
2022/06/26 02:05:37;;;;;;;;;;;;;;;;;;4987104;28;20376;-52
2022/06/26 02:08:03;;;;;;;;;;;;;;;;;;4986340;28;19909;-51
2022/06/26 02:15:58;;;;;;;;;;;;;;;;;;4987327;28;19916;-51
2022/06/26 02:18:25;;;;;;;;;;;;;;;;;;4987093;28;20008;-52
2022/06/26 02:20:51;;;;;;;;;;;;;;;;;;4988354;28;19913;-52
2022/06/26 02:23:17;;;;;;;;;;;;;;;;;;4987345;28;19912;-52
2022/06/26 02:25:43;;;;;;;;;;;;;;;;;;4987716;28;20016;-52
2022/06/26 02:28:09;;;;;;;;;;;;;;;;;;4985705;28;19909;-52
2022/06/26 02:30:35;;;;;;;;;;;;;;;;;;4988234;28;20380;-52
2022/06/26 02:33:01;;;;;;;;;;;;;;;;;;4985494;28;19918;-52
2022/06/26 02:35:27;;;;;;;;;;;;;;;;;;4987714;28;20602;-52
2022/06/26 02:37:54;;;;;;;;;;;;;;;;;;4986267;28;19949;-52
2022/06/26 02:40:20;;;;;;;;;;;;;;;;;;4986861;28;20776;-52
2022/06/26 02:42:46;;;;;;;;;;;;;;;;;;4987751;28;20012;-51
2022/06/26 02:45:12;;;;;;;;;;;;;;;;;;4986919;28;19985;-52
2022/06/26 02:47:38;;;;;;;;;;;;;;;;;;4987693;28;19979;-53
2022/06/26 02:50:04;;;;;;;;;;;;;;;;;;4987585;28;19957;-54
2022/06/26 02:52:30;;;;;;;;;;;;;;;;;;4986566;28;19914;-54
2022/06/26 02:54:56;;;;;;;;;;;;;;;;;;4987515;28;19910;-54
2022/06/26 02:57:22;;;;;;;;;;;;;;;;;;4987143;28;19917;-51
2022/06/26 02:59:48;;;;;;;;;;;;;;;;;;4986329;28;20021;-50
2022/06/26 03:02:14;;;;;;;;;;;;;;;;;;4990838;28;19906;-53
2022/06/26 03:04:40;;;;;;;;;;;;;;;;;;4991162;28;19906;-51
2022/06/26 03:07:06;;;;;;;;;;;;;;;;;;4991708;28;19909;-51
2022/06/26 03:09:32;;;;;;;;;;;;;;;;;;4991191;28;19917;-51
2022/06/26 03:11:58;;;;;;;;;;;;;;;;;;4991193;28;20095;-52
2022/06/26 03:14:24;;;;;;;;;;;;;;;;;;4989670;28;19913;-52
2022/06/26 03:16:50;;;;;;;;;;;;;;;;;;4990946;28;19910;-51
2022/06/26 03:19:15;;;;;;;;;;;;;;;;;;4990716;28;19910;-52
2022/06/26 03:21:41;;;;;;;;;;;;;;;;;;4990942;28;19913;-51
2022/06/26 03:24:07;;;;;;;;;;;;;;;;;;4990537;28;19910;-51
2022/06/26 03:26:33;;;;;;;;;;;;;;;;;;4991419;28;19959;-52
2022/06/26 03:28:59;;;;;;;;;;;;;;;;;;4990288;28;19909;-52
2022/06/26 03:31:25;;;;;;;;;;;;;;;;;;4990710;28;19906;-52
2022/06/26 03:33:51;;;;;;;;;;;;;;;;;;4990746;28;19916;-52
2022/06/26 03:36:17;;;;;;;;;;;;;;;;;;4990524;28;19972;-52
2022/06/26 03:38:43;;;;;;;;;;;;;;;;;;4989191;28;20000;-52
2022/06/26 03:41:09;;;;;;;;;;;;;;;;;;4989295;28;20036;-50
2022/06/26 03:43:35;;;;;;;;;;;;;;;;;;4991088;28;19906;-52
2022/06/26 03:46:01;;;;;;;;;;;;;;;;;;4989046;28;19914;-53
2022/06/26 03:48:27;;;;;;;;;;;;;;;;;;4990590;28;19910;-52
2022/06/26 03:50:53;;;;;;;;;;;;;;;;;;4990431;28;19912;-53
2022/06/26 03:53:19;;;;;;;;;;;;;;;;;;4990172;28;19910;-53
2022/06/26 03:55:45;;;;;;;;;;;;;;;;;;4990508;28;19910;-53
2022/06/26 03:58:11;;;;;;;;;;;;;;;;;;4989865;28;19917;-52
2022/06/26 04:00:37;;;;;;;;;;;;;;;;;;4988952;28;19940;-53
2022/06/26 04:03:03;;;;;;;;;;;;;;;;;;4988825;28;19918;-53
2022/06/26 04:05:29;;;;;;;;;;;;;;;;;;4989892;28;20012;-51
2022/06/26 04:07:55;;;;;;;;;;;;;;;;;;4990204;28;20455;-52
2022/06/26 04:10:21;;;;;;;;;;;;;;;;;;4989712;28;19940;-53
2022/06/26 04:12:47;;;;;;;;;;;;;;;;;;4989679;28;19910;-52
2022/06/26 04:15:13;;;;;;;;;;;;;;;;;;4989974;28;20000;-53
2022/06/26 04:17:39;;;;;;;;;;;;;;;;;;4989057;28;19936;-54
2022/06/26 04:20:05;;;;;;;;;;;;;;;;;;4990008;28;19913;-54
2022/06/26 04:22:31;;;;;;;;;;;;;;;;;;4989802;28;20273;-53
2022/06/26 04:24:57;;;;;;;;;;;;;;;;;;4989861;28;20119;-54
2022/06/26 04:27:23;;;;;;;;;;;;;;;;;;4988584;28;19914;-53
2022/06/26 04:29:48;;;;;;;;;;;;;;;;;;4989325;28;19906;-53
2022/06/26 04:32:14;;;;;;;;;;;;;;;;;;4989395;28;19937;-52
2022/06/26 04:34:40;;;;;;;;;;;;;;;;;;4988471;28;20021;-52
2022/06/26 04:37:06;;;;;;;;;;;;;;;;;;4989855;28;19920;-54
2022/06/26 04:39:32;;;;;;;;;;;;;;;;;;4989528;28;19910;-52
2022/06/26 04:41:58;;;;;;;;;;;;;;;;;;4988107;28;20323;-53
2022/06/26 04:44:25;;;;;;;;;;;;;;;;;;4989540;28;19906;-53
2022/06/26 04:46:52;;;;;;;;;;;;;;;;;;4989293;28;20312;-53
2022/06/26 04:49:18;;;;;;;;;;;;;;;;;;4989163;28;19909;-54
2022/06/26 04:51:44;;;;;;;;;;;;;;;;;;4989558;28;19906;-55
2022/06/26 04:54:10;;;;;;;;;;;;;;;;;;4988748;28;19932;-54
2022/06/26 04:56:36;;;;;;;;;;;;;;;;;;4987389;28;19909;-54
2022/06/26 04:59:01;;;;;;;;;;;;;;;;;;4988753;28;19980;-53
2022/06/26 05:01:27;;;;;;;;;;;;;;;;;;4987583;28;20236;-54
2022/06/26 05:03:53;;;;;;;;;;;;;;;;;;4988231;28;19906;-54
2022/06/26 05:06:19;;;;;;;;;;;;;;;;;;4988617;28;19956;-54
2022/06/26 05:08:45;;;;;;;;;;;;;;;;;;4987501;28;19976;-54
2022/06/26 05:11:11;;;;;;;;;;;;;;;;;;4988565;28;19906;-53
2022/06/26 05:13:37;;;;;;;;;;;;;;;;;;4989580;28;19909;-54
2022/06/26 05:16:03;;;;;;;;;;;;;;;;;;4988881;28;19931;-53
2022/06/26 05:18:29;;;;;;;;;;;;;;;;;;4988664;28;19964;-53
2022/06/26 05:20:55;;;;;;;;;;;;;;;;;;4987548;28;19918;-54
2022/06/26 05:23:21;;;;;;;;;;;;;;;;;;4987747;28;19972;-54
2022/06/26 05:25:47;;;;;;;;;;;;;;;;;;4988598;28;19933;-53
2022/06/26 05:28:14;;;;;;;;;;;;;;;;;;4988358;28;19963;-54
2022/06/26 05:30:40;;;;;;;;;;;;;;;;;;4988340;28;20391;-54
2022/06/26 05:33:06;;;;;;;;;;;;;;;;;;4987895;28;19953;-52
2022/06/26 05:35:32;;;;;;;;;;;;;;;;;;4988635;28;20008;-53
2022/06/26 05:37:58;;;;;;;;;;;;;;;;;;4988375;28;20428;-52
2022/06/26 05:40:24;;;;;;;;;;;;;;;;;;4987828;28;19918;-54
2022/06/26 05:42:50;;;;;;;;;;;;;;;;;;4988495;28;19909;-52
2022/06/26 05:45:16;;;;;;;;;;;;;;;;;;4987548;28;19909;-54
2022/06/26 05:47:42;;;;;;;;;;;;;;;;;;4987441;28;19914;-53
2022/06/26 05:50:08;;;;;;;;;;;;;;;;;;4987646;28;19917;-54
2022/06/26 05:52:34;;;;;;;;;;;;;;;;;;4990450;28;19932;-54
2022/06/26 05:55:00;;;;;;;;;;;;;;;;;;4989350;28;19909;-53
2022/06/26 05:57:25;;;;;;;;;;;;;;;;;;4987653;28;19905;-54
2022/06/26 05:59:51;;;;;;;;;;;;;;;;;;4987980;28;19985;-54
2022/06/26 06:02:17;;;;;;;;;;;;;;;;;;4987996;28;20091;-54
2022/06/26 06:04:43;;;;;;;;;;;;;;;;;;4987554;28;19913;-55
2022/06/26 06:07:09;;;;;;;;;;;;;;;;;;4988111;28;19928;-55
2022/06/26 06:09:35;;;;;;;;;;;;;;;;;;4987532;28;19913;-54
2022/06/26 06:12:01;;;;;;;;;;;;;;;;;;4987788;28;19906;-55
2022/06/26 06:14:27;;;;;;;;;;;;;;;;;;4988093;28;19948;-55
2022/06/26 06:16:53;;;;;;;;;;;;;;;;;;4988159;28;19910;-54
2022/06/26 06:19:19;;;;;;;;;;;;;;;;;;4987783;28;19906;-54
2022/06/26 06:21:45;;;;;;;;;;;;;;;;;;4986833;28;19976;-54
2022/06/26 06:24:11;;;;;;;;;;;;;;;;;;4987743;28;19905;-54
2022/06/26 06:26:37;;;;;;;;;;;;;;;;;;4988409;28;19928;-54
2022/06/26 06:29:03;;;;;;;;;;;;;;;;;;4988034;28;19910;-54
2022/06/26 06:31:29;;;;;;;;;;;;;;;;;;4986950;28;19937;-54
2022/06/26 06:33:55;;;;;;;;;;;;;;;;;;4987457;28;20000;-54
2022/06/26 06:36:21;;;;;;;;;;;;;;;;;;4987833;28;20364;-54
2022/06/26 06:38:47;;;;;;;;;;;;;;;;;;4987635;28;19929;-53
2022/06/26 06:41:13;;;;;;;;;;;;;;;;;;4987379;28;19959;-53
2022/06/26 06:43:39;;;;;;;;;;;;;;;;;;4987577;28;19963;-54
2022/06/26 06:46:05;;;;;;;;;;;;;;;;;;4987062;28;19922;-54
2022/06/26 06:48:31;;;;;;;;;;;;;;;;;;4987642;28;20357;-53
2022/06/26 06:50:57;;;;;;;;;;;;;;;;;;4986795;28;19960;-54
2022/06/26 06:53:23;;;;;;;;;;;;;;;;;;4987624;28;20000;-54
2022/06/26 06:55:49;;;;;;;;;;;;;;;;;;4987561;28;19913;-53
2022/06/26 06:58:15;;;;;;;;;;;;;;;;;;4986672;28;19992;-54
2022/06/26 07:00:40;;;;;;;;;;;;;;;;;;4987514;28;19909;-54
2022/06/26 07:03:06;;;;;;;;;;;;;;;;;;4987979;28;19913;-53
2022/06/26 07:05:32;;;;;;;;;;;;;;;;;;4986869;28;19933;-53
2022/06/26 07:07:58;;;;;;;;;;;;;;;;;;4987248;28;19910;-53
2022/06/26 07:10:24;;;;;;;;;;;;;;;;;;4986450;28;20048;-53
2022/06/26 07:12:50;;;;;;;;;;;;;;;;;;4986045;28;19972;-53
2022/06/26 07:15:16;;;;;;;;;;;;;;;;;;4987212;28;19912;-52
2022/06/26 07:17:42;;;;;;;;;;;;;;;;;;4987458;28;19906;-53
2022/06/26 07:20:08;;;;;;;;;;;;;;;;;;4986882;28;19944;-51
2022/06/26 07:22:34;;;;;;;;;;;;;;;;;;4985856;28;19917;-54
2022/06/26 07:25:00;;;;;;;;;;;;;;;;;;4985723;28;19912;-53
2022/06/26 07:27:26;;;;;;;;;;;;;;;;;;4987316;28;19944;-53
2022/06/26 07:29:52;;;;;;;;;;;;;;;;;;4987206;28;20341;-52
2022/06/26 07:32:18;;;;;;;;;;;;;;;;;;4986126;28;19914;-53
2022/06/26 07:34:44;;;;;;;;;;;;;;;;;;4987320;28;19913;-53
2022/06/26 07:37:10;;;;;;;;;;;;;;;;;;4986881;28;19912;-52
2022/06/26 07:39:36;;;;;;;;;;;;;;;;;;4987768;28;19907;-52
2022/06/26 07:42:02;;;;;;;;;;;;;;;;;;4986870;28;19957;-53
2022/06/26 07:44:28;;;;;;;;;;;;;;;;;;4987200;28;19967;-52
2022/06/26 07:46:54;;;;;;;;;;;;;;;;;;4987652;28;19925;-50
2022/06/26 07:49:20;;;;;;;;;;;;;;;;;;4989756;28;19913;-53
2022/06/26 07:51:46;;;;;;;;;;;;;;;;;;4990583;28;19906;-54
2022/06/26 07:54:12;;;;;;;;;;;;;;;;;;4989728;28;20317;-54
2022/06/26 07:56:38;;;;;;;;;;;;;;;;;;4988579;28;19940;-52
2022/06/26 07:59:04;;;;;;;;;;;;;;;;;;4990632;28;19920;-53
2022/06/26 08:01:30;;;;;;;;;;;;;;;;;;4989076;28;19917;-52
2022/06/26 08:03:57;;;;;;;;;;;;;;;;;;4990295;28;19913;-53
2022/06/26 08:06:23;;;;;;;;;;;;;;;;;;4990107;28;19933;-53
2022/06/26 08:08:49;;;;;;;;;;;;;;;;;;4988930;28;20285;-53
2022/06/26 08:11:15;;;;;;;;;;;;;;;;;;4988059;28;19914;-53
2022/06/26 08:13:41;;;;;;;;;;;;;;;;;;4990190;28;19916;-52
2022/06/26 08:16:07;;;;;;;;;;;;;;;;;;4990546;28;19912;-53
2022/06/26 08:18:33;;;;;;;;;;;;;;;;;;4990314;28;19906;-52
2022/06/26 08:22:00;;;;;;;;;;;;;;;;;;4988809;28;19949;-53
2022/06/26 08:23:44;;;;;;;;;;;;;;;;;;4989873;28;19918;-53
2022/06/26 08:26:10;;;;;;;;;;;;;;;;;;4989816;28;19932;-52
2022/06/26 08:28:37;;;;;;;;;;;;;;;;;;4989442;28;19961;-52
2022/06/26 08:31:03;;;;;;;;;;;;;;;;;;4990285;28;19905;-51
2022/06/26 08:33:29;;;;;;;;;;;;;;;;;;4988225;28;19953;-52
2022/06/26 08:35:55;;;;;;;;;;;;;;;;;;4989001;28;19909;-53
2022/06/26 08:38:21;;;;;;;;;;;;;;;;;;4987877;28;19921;-51
2022/06/26 08:40:47;;;;;;;;;;;;;;;;;;4990162;28;19980;-53
2022/06/26 08:43:13;;;;;;;;;;;;;;;;;;4989541;28;19906;-52
2022/06/26 08:45:39;;;;;;;;;;;;;;;;;;4988728;28;19948;-52
2022/06/26 08:48:06;;;;;;;;;;;;;;;;;;4990511;28;20426;-50
2022/06/26 08:50:32;;;;;;;;;;;;;;;;;;4989921;28;19910;-53
2022/06/26 08:52:59;;;;;;;;;;;;;;;;;;4990146;28;20285;-52
2022/06/26 08:55:25;;;;;;;;;;;;;;;;;;4989225;28;20004;-53
2022/06/26 08:57:51;;;;;;;;;;;;;;;;;;4987996;28;19993;-51
2022/06/26 09:00:17;;;;;;;;;;;;;;;;;;4989392;28;20388;-53
2022/06/26 09:02:43;;;;;;;;;;;;;;;;;;4989921;28;19909;-53
2022/06/26 09:05:09;;;;;;;;;;;;;;;;;;4989647;28;19905;-52
2022/06/26 09:07:35;;;;;;;;;;;;;;;;;;4990655;28;19916;-52
2022/06/26 09:10:01;;;;;;;;;;;;;;;;;;4989533;28;20347;-52
2022/06/26 09:12:27;;;;;;;;;;;;;;;;;;4989093;28;19956;-52
2022/06/26 09:14:53;;;;;;;;;;;;;;;;;;4989956;28;19906;-52
2022/06/26 09:17:19;;;;;;;;;;;;;;;;;;4989706;28;19938;-52
2022/06/26 09:19:45;;;;;;;;;;;;;;;;;;4985318;28;19914;-51
2022/06/26 09:22:10;;;;;;;;;;;;;;;;;;4988617;28;19918;-49
2022/06/26 09:24:36;;;;;;;;;;;;;;;;;;4989243;28;19910;-53
2022/06/26 09:27:02;;;;;;;;;;;;;;;;;;4989370;28;19912;-51
2022/06/26 09:29:28;;;;;;;;;;;;;;;;;;4989157;28;19933;-52
2022/06/26 09:31:54;;;;;;;;;;;;;;;;;;4989718;28;19929;-49
2022/06/26 09:34:20;;;;;;;;;;;;;;;;;;4973861;28;19917;-51
2022/06/26 09:36:46;;;;;;;;;;;;;;;;;;4989264;28;19905;-50
2022/06/26 09:39:12;;;;;;;;;;;;;;;;;;4985368;28;19953;-51
2022/06/26 09:41:39;;;;;;;;;;;;;;;;;;4988304;28;19921;-50
2022/06/26 09:44:05;;;;;;;;;;;;;;;;;;4989784;28;19916;-52
2022/06/26 09:46:31;;;;;;;;;;;;;;;;;;4985486;28;19914;-51
2022/06/26 09:48:57;;;;;;;;;;;;;;;;;;4987584;28;19910;-51
2022/06/26 09:51:23;;;;;;;;;;;;;;;;;;4988512;28;19913;-51
2022/06/26 09:53:49;;;;;;;;;;;;;;;;;;4988302;28;19906;-52
2022/06/26 09:56:15;;;;;;;;;;;;;;;;;;4984525;28;20004;-51
2022/06/26 09:58:40;;;;;;;;;;;;;;;;;;4984858;28;19988;-51
2022/06/26 10:06:36;;;;;;;;;;;;;;;;;;4987428;28;19917;-51
2022/06/26 10:09:02;;;;;;;;;;;;;;;;;;4970616;28;19906;-52
2022/06/26 10:11:28;;;;;;;;;;;;;;;;;;4980693;28;20357;-51
2022/06/26 10:13:54;;;;;;;;;;;;;;;;;;4988571;28;19983;-48
2022/06/26 10:16:20;;;;;;;;;;;;;;;;;;4988590;28;19905;-48
2022/06/26 10:18:46;;;;;;;;;;;;;;;;;;4980473;28;20703;-52
2022/06/26 10:21:15;;;;;;;;;;;;;;;;;;4984310;28;20012;-51
2022/06/26 10:23:40;;;;;;;;;;;;;;;;;;4980108;28;19937;-51
2022/06/26 10:26:06;;;;;;;;;;;;;;;;;;4978333;28;20011;-50
2022/06/26 10:28:32;;;;;;;;;;;;;;;;;;4988697;28;19975;-48
2022/06/26 10:30:58;;;;;;;;;;;;;;;;;;4985434;28;19913;-52
2022/06/26 10:33:24;;;;;;;;;;;;;;;;;;4987579;28;19926;-50
2022/06/26 10:35:51;;;;;;;;;;;;;;;;;;4988342;28;19964;-51
2022/06/26 10:38:17;;;;;;;;;;;;;;;;;;4986960;28;19914;-49
2022/06/26 10:43:27;;;;;;;;;;;;;;;;;;4969230;28;19914;-48
2022/06/26 10:45:53;;;;;;;;;;;;;;;;;;4971856;28;19910;-52
2022/06/26 10:48:19;;;;;;;;;;;;;;;;;;4986682;28;19910;-52
2022/06/26 10:50:47;;;;;;;;;;;;;;;;;;4988219;28;20574;-52
2022/06/26 10:53:13;;;;;;;;;;;;;;;;;;4987342;28;20365;-51
2022/06/26 10:55:38;;;;;;;;;;;;;;;;;;4988323;28;19909;-51
2022/06/26 10:58:04;;;;;;;;;;;;;;;;;;4987773;28;19929;-52
2022/06/26 11:00:30;;;;;;;;;;;;;;;;;;4973519;28;19977;-49
2022/06/26 11:02:56;;;;;;;;;;;;;;;;;;4984439;28;19913;-52
2022/06/26 11:05:22;;;;;;;;;;;;;;;;;;4985257;28;19996;-52
2022/06/26 11:07:48;;;;;;;;;;;;;;;;;;4986862;28;19910;-51
2022/06/26 11:10:14;;;;;;;;;;;;;;;;;;4986577;28;20000;-52
2022/06/26 11:12:40;;;;;;;;;;;;;;;;;;4987042;28;20000;-51
2022/06/26 11:15:06;;;;;;;;;;;;;;;;;;4987634;28;20021;-52
2022/06/26 11:17:33;;;;;;;;;;;;;;;;;;4986900;28;20619;-52
2022/06/26 11:22:43;;;;;;;;;;;;;;;;;;4990002;28;20315;-53
2022/06/26 11:25:09;;;;;;;;;;;;;;;;;;4990736;28;19909;-52
2022/06/26 11:27:35;;;;;;;;;;;;;;;;;;4989813;28;19909;-50
2022/06/26 11:30:01;;;;;;;;;;;;;;;;;;4989169;28;19909;-52
2022/06/26 11:32:27;;;;;;;;;;;;;;;;;;4989232;28;19913;-53
2022/06/26 11:34:53;;;;;;;;;;;;;;;;;;4989850;28;19910;-52
2022/06/26 11:37:19;;;;;;;;;;;;;;;;;;4989389;28;19957;-50
2022/06/26 11:39:45;;;;;;;;;;;;;;;;;;4989218;28;19910;-52
2022/06/26 11:42:11;;;;;;;;;;;;;;;;;;4989086;28;19913;-53
2022/06/26 11:44:37;;;;;;;;;;;;;;;;;;4985475;28;19920;-52
2022/06/26 11:47:03;;;;;;;;;;;;;;;;;;4981962;28;19909;-52
2022/06/26 11:49:28;;;;;;;;;;;;;;;;;;4980280;28;19921;-52
2022/06/26 11:51:54;;;;;;;;;;;;;;;;;;4989196;28;19973;-53
2022/06/26 11:54:20;;;;;;;;;;;;;;;;;;4987687;28;19972;-52
2022/06/26 11:56:46;;;;;;;;;;;;;;;;;;4986987;28;19910;-54
2022/06/26 11:59:12;;;;;;;;;;;;;;;;;;4987317;28;19971;-53
2022/06/26 12:01:38;;;;;;;;;;;;;;;;;;4988394;28;19914;-54
2022/06/26 12:04:04;;;;;;;;;;;;;;;;;;4988821;28;19918;-54
2022/06/26 12:06:30;;;;;;;;;;;;;;;;;;4986689;28;19916;-53
2022/06/26 12:08:56;;;;;;;;;;;;;;;;;;4989523;28;20262;-53
2022/06/26 12:11:22;;;;;;;;;;;;;;;;;;4988496;28;19961;-52
2022/06/26 12:13:48;;;;;;;;;;;;;;;;;;4988408;28;20035;-50
2022/06/26 12:16:14;;;;;;;;;;;;;;;;;;4989493;28;20004;-52
2022/06/26 12:18:41;;;;;;;;;;;;;;;;;;4987042;28;19932;-53
2022/06/26 12:21:06;;;;;;;;;;;;;;;;;;4987909;28;19910;-54
2022/06/26 12:23:33;;;;;;;;;;;;;;;;;;4989151;28;20487;-52
2022/06/26 12:25:59;;;;;;;;;;;;;;;;;;4988783;28;19933;-52
2022/06/26 12:28:25;;;;;;;;;;;;;;;;;;4986810;28;19909;-54
2022/06/26 12:30:51;;;;;;;;;;;;;;;;;;4987309;28;19932;-54
2022/06/26 12:33:17;;;;;;;;;;;;;;;;;;4988900;28;19909;-54
2022/06/26 12:35:43;;;;;;;;;;;;;;;;;;4988186;28;19945;-54
2022/06/26 12:38:09;;;;;;;;;;;;;;;;;;4988834;28;19984;-54
2022/06/26 12:40:35;;;;;;;;;;;;;;;;;;4988598;28;19921;-55
2022/06/26 12:43:01;;;;;;;;;;;;;;;;;;4987653;28;19916;-56
2022/06/26 12:45:27;;;;;;;;;;;;;;;;;;4988824;28;19918;-55
2022/06/26 12:47:53;;;;;;;;;;;;;;;;;;4983370;28;20357;-55
2022/06/26 12:50:19;;;;;;;;;;;;;;;;;;4987291;28;19955;-54
2022/06/26 12:52:45;;;;;;;;;;;;;;;;;;4987415;28;19910;-56
2022/06/26 12:55:11;;;;;;;;;;;;;;;;;;4987512;28;19917;-55
2022/06/26 12:57:38;;;;;;;;;;;;;;;;;;4986388;28;19943;-55
2022/06/26 13:00:03;;;;;;;;;;;;;;;;;;4987379;28;19922;-51
2022/06/26 13:02:29;;;;;;;;;;;;;;;;;;4983477;28;19917;-53
2022/06/26 13:04:56;;;;;;;;;;;;;;;;;;4998087;28;19914;-54
2022/06/26 13:07:22;;;;;;;;;;;;;;;;;;4980628;28;19921;-54
2022/06/26 13:09:49;;;;;;;;;;;;;;;;;;4985491;28;19914;-53
2022/06/26 13:12:15;;;;;;;;;;;;;;;;;;4983822;28;20007;-53
2022/06/26 13:14:42;;;;;;;;;;;;;;;;;;4985282;28;19945;-54
2022/06/26 13:17:09;;;;;;;;;;;;;;;;;;4984722;28;19913;-53
2022/06/26 13:19:35;;;;;;;;;;;;;;;;;;4984939;28;20404;-53
2022/06/26 13:22:01;;;;;;;;;;;;;;;;;;4980866;28;20012;-54
2022/06/26 13:24:27;;;;;;;;;;;;;;;;;;4985706;28;19906;-53
2022/06/26 13:26:54;;;;;;;;;;;;;;;;;;4983741;28;19913;-54
2022/06/26 13:29:22;;;;;;;;;;;;;;;;;;4987447;28;19936;-55
2022/06/26 13:31:48;;;;;;;;;;;;;;;;;;5002872;28;19910;-54
2022/06/26 13:34:14;;;;;;;;;;;;;;;;;;4988251;28;20300;-54
2022/06/26 13:36:40;;;;;;;;;;;;;;;;;;4985516;28;19917;-56
2022/06/26 13:39:06;;;;;;;;;;;;;;;;;;4987867;28;20356;-54
2022/06/26 13:41:32;;;;;;;;;;;;;;;;;;4985881;28;19913;-53
2022/06/26 13:43:58;;;;;;;;;;;;;;;;;;4984102;28;20060;-55
2022/06/26 13:46:24;;;;;;;;;;;;;;;;;;4986150;28;20004;-53
2022/06/26 13:48:50;;;;;;;;;;;;;;;;;;4984118;28;19910;-54
2022/06/26 13:51:16;;;;;;;;;;;;;;;;;;4987196;28;19909;-53
2022/06/26 13:53:42;;;;;;;;;;;;;;;;;;4986577;28;19913;-54
2022/06/26 13:56:08;;;;;;;;;;;;;;;;;;4987458;28;19910;-54
2022/06/26 13:58:34;;;;;;;;;;;;;;;;;;4986368;28;19910;-52
2022/06/26 14:01:00;;;;;;;;;;;;;;;;;;4984600;28;19940;-53
2022/06/26 14:03:26;;;;;;;;;;;;;;;;;;4987080;28;19913;-53
2022/06/26 14:05:54;;;;;;;;;;;;;;;;;;4987771;28;19905;-54
2022/06/26 14:08:20;;;;;;;;;;;;;;;;;;4984600;28;20385;-54
2022/06/26 14:10:46;;;;;;;;;;;;;;;;;;4985949;28;19921;-55
2022/06/26 14:13:12;;;;;;;;;;;;;;;;;;4987255;28;19909;-54
2022/06/26 14:15:38;;;;;;;;;;;;;;;;;;4984827;28;19920;-55
2022/06/26 14:18:04;;;;;;;;;;;;;;;;;;4987720;28;19984;-55
2022/06/26 14:20:30;;;;;;;;;;;;;;;;;;4985931;28;19913;-55
2022/06/26 14:25:56;;;;;;;;;;;;;;;;;;4985638;28;19937;-56
2022/06/26 14:28:22;;;;;;;;;;;;;;;;;;4986758;28;19906;-54
2022/06/26 14:30:48;;;;;;;;;;;;;;;;;;4987149;28;20585;-54
2022/06/26 14:33:17;;;;;;;;;;;;;;;;;;4985871;28;19913;-55
2022/06/26 14:35:43;;;;;;;;;;;;;;;;;;4986020;28;20463;-55
2022/06/26 14:38:09;;;;;;;;;;;;;;;;;;4984802;28;19959;-55
2022/06/26 14:40:35;;;;;;;;;;;;;;;;;;4987530;28;19913;-55
2022/06/26 14:43:01;;;;;;;;;;;;;;;;;;4978573;28;19945;-56
2022/06/26 14:45:27;;;;;;;;;;;;;;;;;;4980671;28;19910;-56
2022/06/26 14:47:52;;;;;;;;;;;;;;;;;;4985063;28;19914;-56
2022/06/26 14:50:18;;;;;;;;;;;;;;;;;;4986308;28;19913;-56
2022/06/26 14:52:44;;;;;;;;;;;;;;;;;;4986810;28;19912;-56
2022/06/26 14:55:11;;;;;;;;;;;;;;;;;;4985593;28;19910;-56
2022/06/26 14:57:37;;;;;;;;;;;;;;;;;;4985534;28;19917;-54
2022/06/26 15:00:04;;;;;;;;;;;;;;;;;;4987890;28;20104;-55
2022/06/26 15:02:31;;;;;;;;;;;;;;;;;;4989180;28;19912;-56
2022/06/26 15:04:57;;;;;;;;;;;;;;;;;;4988655;28;19918;-55
2022/06/26 15:07:24;;;;;;;;;;;;;;;;;;4988165;28;19909;-54
2022/06/26 15:09:50;;;;;;;;;;;;;;;;;;4988417;28;19917;-56
2022/06/26 15:12:16;;;;;;;;;;;;;;;;;;4987622;28;19918;-54
2022/06/26 15:14:42;;;;;;;;;;;;;;;;;;4987822;28;20573;-55
2022/06/26 15:17:08;;;;;;;;;;;;;;;;;;4987640;28;19913;-55
2022/06/26 15:19:35;;;;;;;;;;;;;;;;;;4989493;28;19940;-54
2022/06/26 15:22:01;;;;;;;;;;;;;;;;;;4988472;28;20016;-54
2022/06/26 15:24:27;;;;;;;;;;;;;;;;;;4987996;28;20008;-54
2022/06/26 15:26:53;;;;;;;;;;;;;;;;;;4987067;28;20331;-53
2022/06/26 15:29:20;;;;;;;;;;;;;;;;;;4986094;28;19914;-53
2022/06/26 15:31:47;;;;;;;;;;;;;;;;;;4988724;28;19917;-54
2022/06/26 15:34:12;;;;;;;;;;;;;;;;;;4987168;28;20318;-54
2022/06/26 15:36:38;;;;;;;;;;;;;;;;;;5002730;28;20016;-54
2022/06/26 15:39:05;;;;;;;;;;;;;;;;;;4984030;28;19917;-54
2022/06/26 15:41:32;;;;;;;;;;;;;;;;;;4987865;28;20349;-54
2022/06/26 15:43:59;;;;;;;;;;;;;;;;;;4987899;28;19917;-54
2022/06/26 15:46:26;;;;;;;;;;;;;;;;;;4988161;28;19984;-53
2022/06/26 15:48:53;;;;;;;;;;;;;;;;;;4987671;28;19940;-55
2022/06/26 15:51:20;;;;;;;;;;;;;;;;;;4983231;28;19914;-55
2022/06/26 15:53:47;;;;;;;;;;;;;;;;;;4987566;28;19926;-54
2022/06/26 15:56:12;;;;;;;;;;;;;;;;;;4988191;28;20339;-53
2022/06/26 15:58:39;;;;;;;;;;;;;;;;;;4988693;28;20024;-54
2022/06/26 16:01:06;;;;;;;;;;;;;;;;;;4988103;28;20301;-53
2022/06/26 16:03:32;;;;;;;;;;;;;;;;;;4987593;28;19913;-55
2022/06/26 16:06:01;;;;;;;;;;;;;;;;;;4988001;28;19917;-54
2022/06/26 16:08:27;;;;;;;;;;;;;;;;;;4987183;28;19910;-53
2022/06/26 16:10:53;;;;;;;;;;;;;;;;;;4987166;28;19940;-55
2022/06/26 16:13:19;;;;;;;;;;;;;;;;;;4986401;28;19914;-54
2022/06/26 16:15:45;;;;;;;;;;;;;;;;;;4987957;28;20416;-53
2022/06/26 16:18:11;;;;;;;;;;;;;;;;;;4987300;28;19920;-53
2022/06/26 16:20:37;;;;;;;;;;;;;;;;;;4988094;28;19977;-55
2022/06/26 16:28:32;;;;;;;;;;;;;;;;;;4986923;28;19917;-55
2022/06/26 16:30:58;;;;;;;;;;;;;;;;;;4986518;28;19913;-55
2022/06/26 16:33:24;;;;;;;;;;;;;;;;;;4986872;28;19917;-54
2022/06/26 16:35:50;;;;;;;;;;;;;;;;;;4978453;28;20008;-54
2022/06/26 16:38:16;;;;;;;;;;;;;;;;;;4986830;28;20426;-55
2022/06/26 16:40:42;;;;;;;;;;;;;;;;;;4985835;28;20300;-54
2022/06/26 16:43:09;;;;;;;;;;;;;;;;;;4984438;28;19909;-53
2022/06/26 16:45:35;;;;;;;;;;;;;;;;;;4988000;28;19917;-53
2022/06/26 16:48:01;;;;;;;;;;;;;;;;;;4986240;28;20328;-53
2022/06/26 16:50:28;;;;;;;;;;;;;;;;;;4986945;28;19913;-55
2022/06/26 16:52:54;;;;;;;;;;;;;;;;;;4987105;28;19914;-54
2022/06/26 16:55:20;;;;;;;;;;;;;;;;;;4987034;28;20000;-54
2022/06/26 16:57:46;;;;;;;;;;;;;;;;;;4986390;28;19921;-54
2022/06/26 17:00:12;;;;;;;;;;;;;;;;;;4984347;28;19910;-54
2022/06/26 17:02:38;;;;;;;;;;;;;;;;;;4987038;28;19932;-55